Time;durP1;ratioP1;P1;durP2;ratioP2;P2;SDS_P1;SDS_P2;PMS_P1;PMS_P2;Temp;Humidity;BMP_temperature;BMP_pressure;BME280_temperature;BME280_humidity;BME280_pressure;Samples;Min_cycle;Max_cycle;Signal;HPM_P1;HPM_P2
2023/04/18 00:00:42;;;;;;;17.93;15.33;;;7.00;1.00;;;;;;5095437;28;20513;-86
2023/04/18 00:03:09;;;;;;;17.87;16.07;;;7.00;1.00;;;;;;5089799;28;20449;-87
2023/04/18 00:05:36;;;;;;;17.43;15.33;;;7.00;1.00;;;;;;5090307;28;20990;-87
2023/04/18 00:08:05;;;;;;;17.67;15.20;;;7.00;1.00;;;;;;5093433;28;20505;-86
2023/04/18 00:10:32;;;;;;;17.90;15.43;;;7.00;1.00;;;;;;5093029;28;20558;-86
2023/04/18 00:12:59;;;;;;;19.57;15.50;;;6.90;1.00;;;;;;5091142;28;20581;-86
2023/04/18 00:15:28;;;;;;;17.27;15.37;;;6.90;1.00;;;;;;5095706;28;20430;-86
2023/04/18 00:17:55;;;;;;;18.57;16.57;;;6.90;1.00;;;;;;5093538;28;20434;-86
2023/04/18 00:20:25;;;;;;;18.20;16.20;;;6.80;1.00;;;;;;5091282;27;20463;-87
2023/04/18 00:22:53;;;;;;;18.37;16.03;;;6.80;1.00;;;;;;5098698;28;20991;-87
2023/04/18 00:25:22;;;;;;;17.47;15.77;;;6.80;1.00;;;;;;5092519;28;20470;-86
2023/04/18 00:27:49;;;;;;;19.27;15.10;;;6.70;1.00;;;;;;5093454;28;20470;-87
2023/04/18 00:30:16;;;;;;;22.53;17.60;;;6.70;1.00;;;;;;5096510;28;21063;-86
2023/04/18 00:32:43;;;;;;;18.57;16.53;;;6.70;1.00;;;;;;5095369;28;20447;-87
2023/04/18 00:35:10;;;;;;;17.13;14.87;;;6.70;1.00;;;;;;5090827;28;20450;-85
2023/04/18 00:37:37;;;;;;;19.43;15.90;;;6.80;1.00;;;;;;5093701;28;20478;-85
2023/04/18 00:40:05;;;;;;;18.70;16.50;;;6.80;1.00;;;;;;5093373;28;20435;-86
2023/04/18 00:42:33;;;;;;;17.07;15.27;;;6.80;1.00;;;;;;5094920;28;20426;-85
2023/04/18 00:45:00;;;;;;;19.00;15.67;;;6.80;1.00;;;;;;5084336;28;21032;-84
2023/04/18 00:47:28;;;;;;;17.93;16.13;;;6.80;1.00;;;;;;5090070;28;20506;-84
2023/04/18 00:49:55;;;;;;;19.10;16.27;;;6.90;1.00;;;;;;5087647;28;20465;-88
2023/04/18 00:52:25;;;;;;;18.07;16.17;;;7.00;1.00;;;;;;5091283;28;20455;-87
2023/04/18 00:54:53;;;;;;;18.47;16.07;;;7.00;1.00;;;;;;5094150;28;20467;-87
2023/04/18 00:57:21;;;;;;;20.13;15.33;;;7.00;1.00;;;;;;5092848;28;21221;-88
2023/04/18 00:59:50;;;;;;;20.33;16.50;;;7.00;1.00;;;;;;5089724;28;20467;-85
2023/04/18 01:02:17;;;;;;;17.57;15.67;;;7.10;1.00;;;;;;5089524;28;20437;-87
2023/04/18 01:04:45;;;;;;;20.50;17.27;;;7.10;1.00;;;;;;5090781;28;20455;-86
2023/04/18 01:07:13;;;;;;;18.33;16.40;;;7.20;1.00;;;;;;5093290;28;20961;-86
2023/04/18 01:09:41;;;;;;;17.70;15.80;;;7.20;1.00;;;;;;5091341;28;20457;-84
2023/04/18 01:12:08;;;;;;;18.13;15.20;;;7.20;1.00;;;;;;5093235;28;20423;-87
2023/04/18 01:14:35;;;;;;;21.03;16.17;;;7.20;1.00;;;;;;5101000;28;20553;-86
2023/04/18 01:17:04;;;;;;;16.90;15.10;;;7.10;1.00;;;;;;5098744;28;20467;-86
2023/04/18 01:19:31;;;;;;;18.27;15.93;;;7.10;1.00;;;;;;5097506;28;21144;-88
2023/04/18 01:21:58;;;;;;;20.23;15.57;;;7.10;1.00;;;;;;5098162;28;20437;-89
2023/04/18 01:24:28;;;;;;;18.57;15.83;;;7.10;1.00;;;;;;5096287;28;20400;-89
2023/04/18 01:26:58;;;;;;;16.77;14.97;;;7.20;1.00;;;;;;5095824;28;20492;-90
2023/04/18 01:29:26;;;;;;;17.63;14.53;;;7.20;1.00;;;;;;5099401;28;20487;-89
2023/04/18 01:31:53;;;;;;;17.40;14.80;;;7.10;1.00;;;;;;5098954;28;20462;-89
2023/04/18 01:34:20;;;;;;;17.10;14.27;;;7.10;1.00;;;;;;5100698;28;20446;-88
2023/04/18 01:36:47;;;;;;;16.40;14.30;;;7.10;1.00;;;;;;5097081;28;20477;-86
2023/04/18 01:39:17;;;;;;;19.60;16.50;;;7.10;1.00;;;;;;5099896;28;21029;-86
2023/04/18 01:41:45;;;;;;;19.03;14.87;;;7.00;1.00;;;;;;5097440;28;20426;-86
2023/04/18 01:44:12;;;;;;;17.00;14.43;;;7.00;1.00;;;;;;5095681;28;20451;-85
2023/04/18 01:46:39;;;;;;;18.43;15.87;;;7.00;1.00;;;;;;5095847;28;20450;-84
2023/04/18 01:49:10;;;;;;;20.43;15.53;;;7.00;1.00;;;;;;5096992;28;20629;-87
2023/04/18 01:51:38;;;;;;;17.33;14.50;;;6.90;1.00;;;;;;5096770;28;20529;-87
2023/04/18 01:54:05;;;;;;;16.17;14.47;;;6.90;1.00;;;;;;5101055;28;20480;-86
2023/04/18 01:56:36;;;;;;;17.07;14.37;;;6.80;1.00;;;;;;5095698;28;20478;-87
2023/04/18 01:59:04;;;;;;;17.13;15.33;;;6.80;1.00;;;;;;5089326;28;20462;-87
2023/04/18 02:01:31;;;;;;;16.50;14.63;;;6.80;1.00;;;;;;5099503;28;20530;-89
2023/04/18 02:03:59;;;;;;;17.60;13.90;;;6.70;1.00;;;;;;5102222;27;20441;-87
2023/04/18 02:06:26;;;;;;;22.60;16.20;;;6.70;1.00;;;;;;5100371;28;20474;-86
2023/04/18 02:08:53;;;;;;;19.40;17.13;;;6.70;1.00;;;;;;5098882;28;21283;-86
2023/04/18 02:11:22;;;;;;;18.60;16.07;;;6.70;1.00;;;;;;5093656;27;21111;-87
2023/04/18 02:13:52;;;;;;;16.53;14.63;;;6.80;1.00;;;;;;5095606;28;20916;-87
2023/04/18 02:16:21;;;;;;;18.43;15.50;;;6.90;1.00;;;;;;5096539;28;20545;-85
2023/04/18 02:18:51;;;;;;;22.10;14.70;;;6.90;1.00;;;;;;5095775;28;20431;-85
2023/04/18 02:21:21;;;;;;;18.88;15.10;;;6.90;1.00;;;;;;5097488;28;20437;-84
2023/04/18 02:23:50;;;;;;;19.10;15.17;;;6.90;1.00;;;;;;5099263;27;20231;-85
2023/04/18 02:26:17;;;;;;;17.80;15.17;;;7.00;1.00;;;;;;5101088;27;20478;-86
2023/04/18 02:28:47;;;;;;;18.77;15.30;;;7.10;1.00;;;;;;5101106;28;20458;-86
2023/04/18 02:31:15;;;;;;;18.13;15.37;;;7.20;1.00;;;;;;5100946;28;20426;-87
2023/04/18 02:36:27;;;;;;;15.43;13.80;;;7.30;1.00;;;;;;5640418;22;20433;-83
2023/04/18 02:38:54;;;;;;;16.93;14.03;;;7.30;1.00;;;;;;5105150;27;20531;-87
2023/04/18 02:41:23;;;;;;;17.90;14.87;;;7.20;1.00;;;;;;5114686;27;20466;-87
2023/04/18 02:43:50;;;;;;;16.03;13.30;;;7.20;1.00;;;;;;5113175;27;20462;-86
2023/04/18 02:46:18;;;;;;;16.73;14.33;;;7.20;1.00;;;;;;5114585;27;20545;-86
2023/04/18 02:48:46;;;;;;;20.07;15.33;;;7.20;1.00;;;;;;5113869;27;20549;-84
2023/04/18 02:51:18;;;;;;;16.70;14.50;;;7.20;1.00;;;;;;5113817;27;20462;-86
2023/04/18 02:53:53;;;;;;;20.60;15.00;;;7.30;1.00;;;;;;5114386;27;20482;-85
2023/04/18 02:56:21;;;;;;;16.70;14.00;;;7.30;1.00;;;;;;5115721;27;20967;-84
2023/04/18 02:58:49;;;;;;;17.60;15.23;;;7.40;1.00;;;;;;5110386;27;20486;-84
2023/04/18 03:01:17;;;;;;;19.23;14.63;;;7.40;1.00;;;;;;5108829;27;20458;-85
2023/04/18 03:03:47;;;;;;;17.80;15.03;;;7.50;1.00;;;;;;5112849;27;21118;-84
2023/04/18 03:06:14;;;;;;;17.63;14.63;;;7.50;1.00;;;;;;5114970;27;20535;-84
2023/04/18 03:08:41;;;;;;;20.87;15.90;;;7.50;1.00;;;;;;5112990;27;20499;-87
2023/04/18 03:11:08;;;;;;;19.87;15.50;;;7.50;1.00;;;;;;5112874;27;21351;-87
2023/04/18 03:13:35;;;;;;;21.10;15.60;;;7.50;1.00;;;;;;5113317;27;20436;-87
2023/04/18 03:16:05;;;;;;;17.87;15.00;;;7.50;1.00;;;;;;5108956;27;20466;-85
2023/04/18 03:18:32;;;;;;;16.23;14.50;;;7.60;1.00;;;;;;5111148;27;20458;-85
2023/04/18 03:21:02;;;;;;;19.30;15.33;;;7.60;1.00;;;;;;5103769;27;20555;-84
2023/04/18 03:23:29;;;;;;;17.40;14.83;;;7.50;1.00;;;;;;5117814;27;20488;-87
2023/04/18 03:25:57;;;;;;;17.77;14.53;;;7.40;1.00;;;;;;5113592;27;20447;-85
2023/04/18 03:28:24;;;;;;;20.93;15.43;;;7.40;1.00;;;;;;5115224;27;20499;-86
2023/04/18 03:30:51;;;;;;;18.97;15.50;;;7.30;1.00;;;;;;5111969;27;20426;-85
2023/04/18 03:33:18;;;;;;;17.67;15.10;;;7.30;1.00;;;;;;5114089;27;20580;-86
2023/04/18 03:35:45;;;;;;;16.67;14.90;;;7.30;1.00;;;;;;5111564;27;20526;-86
2023/04/18 03:38:14;;;;;;;15.20;13.60;;;7.40;1.00;;;;;;5108863;27;20461;-86
2023/04/18 03:40:43;;;;;;;15.70;14.00;;;7.40;1.00;;;;;;5104032;27;20637;-85
2023/04/18 03:43:11;;;;;;;18.90;14.10;;;7.40;1.00;;;;;;5109574;27;20470;-86
2023/04/18 03:45:38;;;;;;;16.97;15.27;;;7.40;1.00;;;;;;5116153;27;20580;-85
2023/04/18 03:48:06;;;;;;;17.70;15.53;;;7.40;1.00;;;;;;5121383;27;20456;-87
2023/04/18 03:50:33;;;;;;;17.17;14.73;;;7.50;1.00;;;;;;5120508;27;20562;-87
2023/04/18 03:53:02;;;;;;;15.80;14.30;;;7.50;1.00;;;;;;5117214;27;20441;-88
2023/04/18 03:55:30;;;;;;;17.37;15.67;;;7.50;1.00;;;;;;5119431;27;21744;-88
2023/04/18 03:57:58;;;;;;;18.17;15.27;;;7.60;1.00;;;;;;5119196;27;20405;-88
2023/04/18 04:00:25;;;;;;;15.77;14.17;;;7.50;1.00;;;;;;5120694;27;20439;-86
2023/04/18 04:02:54;;;;;;;17.90;14.80;;;7.50;1.00;;;;;;5116086;27;21164;-88
2023/04/18 04:05:24;;;;;;;18.47;14.57;;;7.60;1.00;;;;;;5118127;27;20481;-87
2023/04/18 04:07:51;;;;;;;14.93;13.37;;;7.60;1.00;;;;;;5110958;27;20461;-87
2023/04/18 04:10:20;;;;;;;17.73;14.30;;;7.60;1.00;;;;;;5105387;27;21000;-86
2023/04/18 04:12:48;;;;;;;15.87;13.93;;;7.50;1.00;;;;;;5120820;27;20418;-87
2023/04/18 04:15:16;;;;;;;18.07;15.77;;;7.50;1.00;;;;;;5121548;27;20461;-87
2023/04/18 04:17:43;;;;;;;19.90;15.10;;;7.40;1.00;;;;;;5111900;27;20455;-87
2023/04/18 04:20:21;;;;;;;17.63;15.33;;;7.40;1.00;;;;;;5122751;27;20546;-88
2023/04/18 04:22:49;;;;;;;17.87;15.97;;;7.40;1.00;;;;;;5107671;28;20459;-86
2023/04/18 04:25:18;;;;;;;17.00;14.70;;;7.30;1.00;;;;;;5124077;27;20451;-88
2023/04/18 04:27:45;;;;;;;20.03;17.77;;;7.20;1.00;;;;;;5123976;27;20430;-85
2023/04/18 04:30:15;;;;;;;19.43;16.80;;;7.20;1.00;;;;;;5105378;27;20429;-85
2023/04/18 04:32:43;;;;;;;19.70;16.20;;;7.10;1.00;;;;;;5115075;27;20506;-85
2023/04/18 04:35:10;;;;;;;18.53;16.53;;;7.00;1.00;;;;;;5116517;27;20440;-86
2023/04/18 04:37:39;;;;;;;17.70;15.50;;;7.00;1.00;;;;;;5116348;27;20444;-85
2023/04/18 04:40:09;;;;;;;17.90;15.57;;;7.00;1.00;;;;;;5107069;27;20460;-85
2023/04/18 04:42:36;;;;;;;18.60;16.50;;;7.00;1.00;;;;;;5118197;27;20519;-86
2023/04/18 04:45:03;;;;;;;20.43;16.87;;;7.00;1.00;;;;;;5109552;27;20438;-82
2023/04/18 04:47:32;;;;;;;21.97;17.30;;;6.90;1.00;;;;;;5115889;27;20523;-83
2023/04/18 04:49:59;;;;;;;18.47;16.40;;;6.90;1.00;;;;;;5108183;27;20540;-82
2023/04/18 04:52:31;;;;;;;18.10;15.50;;;6.90;1.00;;;;;;5117313;27;20474;-86
2023/04/18 04:54:58;;;;;;;20.20;15.83;;;7.00;1.00;;;;;;5123380;27;20464;-87
2023/04/18 04:57:26;;;;;;;19.83;15.10;;;7.00;1.00;;;;;;5122132;27;20445;-86
2023/04/18 04:59:53;;;;;;;18.17;14.90;;;7.00;1.00;;;;;;5125055;27;21367;-84
2023/04/18 05:02:23;;;;;;;21.30;17.23;;;7.00;1.00;;;;;;5122290;27;20465;-86
2023/04/18 05:04:52;;;;;;;22.20;17.23;;;6.90;1.00;;;;;;5132124;27;20487;-85
2023/04/18 05:07:19;;;;;;;20.53;16.47;;;6.90;1.00;;;;;;5134354;27;20428;-86
2023/04/18 05:09:48;;;;;;;19.47;16.00;;;6.90;1.00;;;;;;5113113;27;20588;-84
2023/04/18 05:12:15;;;;;;;21.50;16.87;;;6.90;1.00;;;;;;5115350;27;20991;-84
2023/04/18 05:14:42;;;;;;;18.67;16.00;;;6.90;1.00;;;;;;5116234;27;20467;-84
2023/04/18 05:17:09;;;;;;;23.87;15.87;;;7.00;1.00;;;;;;5120910;27;20434;-86
2023/04/18 05:19:36;;;;;;;19.30;16.77;;;7.00;1.00;;;;;;5120553;27;20481;-84
2023/04/18 05:22:07;;;;;;;19.53;14.93;;;7.10;1.00;;;;;;5117862;27;20485;-87
2023/04/18 05:24:34;;;;;;;20.23;15.90;;;7.20;1.00;;;;;;5119763;27;21230;-86
2023/04/18 05:27:03;;;;;;;20.63;15.60;;;7.20;1.00;;;;;;5118202;27;20464;-85
2023/04/18 05:29:30;;;;;;;21.43;18.00;;;7.20;1.00;;;;;;5110578;27;20496;-86
2023/04/18 05:31:57;;;;;;;19.13;16.37;;;7.40;1.00;;;;;;5111688;27;20461;-85
2023/04/18 05:34:25;;;;;;;20.63;15.93;;;7.50;1.00;;;;;;5092973;27;20889;-80
2023/04/18 05:36:53;;;;;;;19.57;16.37;;;7.60;1.00;;;;;;5105628;27;20469;-77
2023/04/18 05:39:21;;;;;;;23.73;16.93;;;7.60;1.00;;;;;;5105702;27;20466;-79
2023/04/18 05:41:50;;;;;;;22.20;16.13;;;7.60;1.00;;;;;;5104281;27;21162;-76
2023/04/18 05:44:17;;;;;;;18.93;16.80;;;7.60;1.00;;;;;;5101525;27;20478;-76
2023/04/18 05:46:44;;;;;;;23.73;16.97;;;7.70;1.00;;;;;;5106199;27;20449;-81
2023/04/18 05:49:12;;;;;;;17.73;15.90;;;7.80;1.00;;;;;;5111633;27;20480;-77
2023/04/18 05:51:40;;;;;;;23.30;17.63;;;7.90;1.00;;;;;;5108904;27;20445;-77
2023/04/18 05:54:09;;;;;;;20.33;16.80;;;8.10;1.00;;;;;;5109184;27;20450;-78
2023/04/18 05:56:41;;;;;;;18.30;15.90;;;8.30;1.00;;;;;;5108524;27;20554;-76
2023/04/18 05:59:08;;;;;;;21.30;19.10;;;8.40;1.00;;;;;;5107890;27;20457;-77
2023/04/18 06:01:35;;;;;;;20.30;18.10;;;8.70;1.00;;;;;;5111671;27;20539;-76
2023/04/18 06:04:02;;;;;;;22.10;16.57;;;8.80;1.00;;;;;;5106784;27;20476;-77
2023/04/18 06:06:30;;;;;;;17.13;15.27;;;8.90;1.00;;;;;;5104601;27;20553;-76
2023/04/18 06:08:57;;;;;;;18.63;15.67;;;9.00;1.00;;;;;;5105362;27;20504;-76
2023/04/18 06:11:24;;;;;;;22.60;16.40;;;9.10;1.00;;;;;;5110536;27;20429;-78
2023/04/18 06:13:54;;;;;;;23.03;16.93;;;9.30;1.00;;;;;;5106303;27;20480;-78
2023/04/18 06:19:05;;;;;;;17.10;14.67;;;9.70;1.00;;;;;;5340662;22;20482;-77
2023/04/18 06:21:32;;;;;;;17.50;13.60;;;9.70;1.00;;;;;;5087786;28;20552;-77
2023/04/18 06:24:00;;;;;;;18.93;15.97;;;9.80;1.00;;;;;;5084004;27;20506;-77
2023/04/18 06:26:27;;;;;;;16.40;14.70;;;9.70;1.00;;;;;;5084581;28;20478;-77
2023/04/18 06:28:55;;;;;;;21.33;15.07;;;9.80;1.00;;;;;;5086370;28;21487;-76
2023/04/18 06:31:22;;;;;;;15.73;13.80;;;9.80;1.00;;;;;;5087488;28;20541;-78
2023/04/18 06:33:49;;;;;;;20.37;15.90;;;9.90;1.00;;;;;;5088754;28;20494;-77
2023/04/18 06:36:16;;;;;;;16.70;13.77;;;10.00;1.00;;;;;;5086465;28;20477;-77
2023/04/18 06:38:43;;;;;;;19.67;16.10;;;10.00;1.00;;;;;;5084470;28;20543;-77
2023/04/18 06:41:10;;;;;;;16.70;14.10;;;10.00;1.00;;;;;;5085565;27;20447;-76
2023/04/18 06:43:37;;;;;;;17.53;13.33;;;10.00;1.00;;;;;;5090013;27;23507;-77
2023/04/18 06:46:08;;;;;;;15.80;13.50;;;10.00;1.00;;;;;;5085717;28;20510;-77
2023/04/18 06:48:35;;;;;;;14.97;13.37;;;10.00;1.00;;;;;;5086630;28;20997;-79
2023/04/18 06:51:03;;;;;;;16.47;14.73;;;9.80;1.00;;;;;;5089420;28;20467;-81
2023/04/18 06:53:30;;;;;;;17.80;14.90;;;9.80;1.00;;;;;;5089885;28;20439;-80
2023/04/18 06:55:59;;;;;;;18.83;14.97;;;9.80;1.00;;;;;;5091652;28;20450;-81
2023/04/18 06:58:29;;;;;;;18.77;14.43;;;9.90;1.00;;;;;;5089764;28;20467;-80
2023/04/18 07:00:56;;;;;;;17.70;13.87;;;10.00;1.00;;;;;;5075612;28;20463;-80
2023/04/18 07:03:24;;;;;;;16.27;14.57;;;10.10;1.00;;;;;;5089426;27;20434;-79
2023/04/18 07:05:52;;;;;;;15.90;13.53;;;10.30;1.00;;;;;;5090309;28;20462;-79
2023/04/18 07:08:19;;;;;;;19.07;14.37;;;10.50;1.00;;;;;;5092057;27;20461;-79
2023/04/18 07:10:45;;;;;;;19.03;13.80;;;10.70;1.00;;;;;;5098114;28;20842;-80
2023/04/18 07:13:12;;;;;;;16.23;14.53;;;10.70;1.00;;;;;;5095790;28;20533;-79
2023/04/18 07:15:41;;;;;;;16.77;14.73;;;10.90;1.00;;;;;;5093604;28;20904;-78
2023/04/18 07:18:08;;;;;;;22.40;15.20;;;11.00;1.00;;;;;;5096477;28;20829;-83
2023/04/18 07:20:37;;;;;;;17.67;14.33;;;11.10;1.00;;;;;;5094520;28;20463;-81
2023/04/18 07:23:05;;;;;;;14.07;12.67;;;11.20;1.00;;;;;;5089079;27;20462;-80
2023/04/18 07:25:33;;;;;;;19.40;14.60;;;11.30;1.00;;;;;;5100971;27;20416;-79
2023/04/18 07:28:00;;;;;;;16.40;14.23;;;11.50;1.00;;;;;;5086322;27;20460;-80
2023/04/18 07:30:27;;;;;;;16.23;14.10;;;11.60;1.00;;;;;;5111024;27;20664;-79
2023/04/18 07:32:54;;;;;;;14.97;12.40;;;11.80;1.00;;;;;;5091428;28;20469;-81
2023/04/18 07:35:21;;;;;;;20.10;14.70;;;11.90;1.00;;;;;;5088693;28;20464;-80
2023/04/18 07:37:50;;;;;;;16.87;14.70;;;12.00;1.00;;;;;;5092655;28;21133;-80
2023/04/18 07:40:17;;;;;;;18.27;14.00;;;12.00;1.00;;;;;;5090255;28;20481;-80
2023/04/18 07:42:45;;;;;;;15.53;13.60;;;12.00;1.00;;;;;;5086930;28;20579;-80
2023/04/18 07:45:12;;;;;;;19.03;13.67;;;11.90;1.00;;;;;;5093351;28;20535;-80
2023/04/18 07:47:40;;;;;;;14.20;12.80;;;11.90;1.00;;;;;;5096137;28;20901;-79
2023/04/18 07:50:09;;;;;;;15.87;13.93;;;12.00;1.00;;;;;;5090919;28;20465;-80
2023/04/18 07:52:35;;;;;;;17.40;13.77;;;12.00;1.00;;;;;;5094036;28;20503;-82
2023/04/18 07:55:07;;;;;;;22.27;13.70;;;12.10;1.00;;;;;;5094177;28;20456;-85
2023/04/18 07:57:33;;;;;;;14.87;13.30;;;12.10;1.00;;;;;;5092615;28;21344;-79
2023/04/18 08:00:01;;;;;;;16.43;13.70;;;12.10;1.00;;;;;;5090871;28;20462;-82
2023/04/18 08:02:30;;;;;;;15.63;14.03;;;12.20;1.00;;;;;;5091039;28;20589;-83
2023/04/18 08:04:57;;;;;;;17.17;14.10;;;12.30;1.00;;;;;;5093446;28;20533;-81
2023/04/18 08:07:24;;;;;;;15.50;13.17;;;12.40;1.00;;;;;;5091428;28;20433;-83
2023/04/18 08:09:51;;;;;;;17.50;13.63;;;12.40;1.00;;;;;;5092414;28;20519;-82
2023/04/18 08:12:19;;;;;;;20.13;14.47;;;12.50;1.00;;;;;;5089443;28;20452;-82
2023/04/18 08:14:47;;;;;;;16.97;14.30;;;12.50;1.00;;;;;;5090483;28;20486;-82
2023/04/18 08:17:14;;;;;;;17.63;13.40;;;12.50;1.00;;;;;;5092626;28;20446;-82
2023/04/18 08:19:41;;;;;;;17.63;14.50;;;12.40;1.00;;;;;;5095452;28;20481;-80
2023/04/18 08:22:12;;;;;;;17.20;13.93;;;12.40;1.00;;;;;;5094271;28;20500;-81
2023/04/18 08:24:39;;;;;;;23.00;14.10;;;12.40;1.00;;;;;;5098819;27;21230;-82
2023/04/18 08:27:06;;;;;;;15.73;14.13;;;12.50;1.00;;;;;;5097515;27;20424;-82
2023/04/18 08:29:35;;;;;;;14.83;13.40;;;12.30;1.00;;;;;;5095429;28;20497;-83
2023/04/18 08:32:02;;;;;;;16.43;14.60;;;12.20;1.00;;;;;;5099214;28;20530;-80
2023/04/18 08:34:33;;;;;;;14.87;13.27;;;12.10;1.00;;;;;;5096231;28;20613;-82
2023/04/18 08:37:00;;;;;;;17.37;14.20;;;12.20;1.00;;;;;;5090959;28;20465;-80
2023/04/18 08:39:27;;;;;;;15.67;13.87;;;12.10;1.00;;;;;;5095858;27;20484;-81
2023/04/18 08:41:58;;;;;;;14.43;12.93;;;12.20;1.00;;;;;;5095923;28;20879;-79
2023/04/18 08:44:28;;;;;;;16.20;14.03;;;12.10;1.00;;;;;;5098293;28;20489;-80
2023/04/18 08:46:59;;;;;;;15.23;12.40;;;12.10;1.00;;;;;;5094003;28;20557;-81
2023/04/18 08:49:27;;;;;;;16.93;14.67;;;12.20;1.00;;;;;;5094819;28;20461;-80
2023/04/18 08:51:56;;;;;;;17.63;14.10;;;12.30;1.00;;;;;;5097454;28;21815;-82
2023/04/18 08:54:25;;;;;;;19.23;14.30;;;12.30;1.00;;;;;;5095473;28;20453;-82
2023/04/18 08:57:04;;;;;;;14.13;12.60;;;12.30;1.00;;;;;;5095327;27;20481;-82
2023/04/18 08:59:34;;;;;;;15.53;13.87;;;12.50;1.00;;;;;;5098818;28;20461;-79
2023/04/18 09:02:04;;;;;;;14.83;13.10;;;12.70;1.00;;;;;;5092468;28;20975;-80
2023/04/18 09:04:37;;;;;;;14.60;13.10;;;12.80;1.00;;;;;;5094028;28;20565;-85
2023/04/18 09:07:05;;;;;;;15.90;14.20;;;13.00;1.00;;;;;;5098150;28;20429;-84
2023/04/18 09:09:43;;;;;;;14.67;12.57;;;13.50;1.00;;;;;;5099493;28;20485;-80
2023/04/18 09:12:13;;;;;;;18.80;12.40;;;14.20;1.00;;;;;;5095387;28;20462;-86
2023/04/18 09:14:44;;;;;;;16.10;13.13;;;14.80;1.00;;;;;;5094700;28;20466;-81
2023/04/18 09:17:17;;;;;;;12.93;11.53;;;15.20;1.00;;;;;;5097549;28;20415;-80
2023/04/18 09:19:53;;;;;;;13.87;12.47;;;15.50;1.00;;;;;;5098858;28;20443;-84
2023/04/18 09:22:20;;;;;;;14.53;12.83;;;15.80;1.00;;;;;;5106778;28;21169;-87
2023/04/18 09:24:56;;;;;;;13.60;12.20;;;16.00;1.00;;;;;;5106327;28;20510;-86
2023/04/18 09:27:24;;;;;;;13.73;11.73;;;16.20;1.00;;;;;;5101319;28;20513;-85
2023/04/18 09:29:53;;;;;;;18.50;13.90;;;16.30;1.00;;;;;;5097678;28;20924;-85
2023/04/18 09:32:25;;;;;;;14.97;13.13;;;16.50;1.00;;;;;;5102845;28;20446;-88
2023/04/18 09:34:56;;;;;;;15.37;13.40;;;16.50;1.00;;;;;;5113223;28;20440;-86
2023/04/18 09:37:24;;;;;;;13.07;11.63;;;16.70;1.00;;;;;;5099024;28;20435;-86
2023/04/18 09:39:52;;;;;;;15.87;11.63;;;16.70;1.00;;;;;;5099258;28;20492;-84
2023/04/18 09:42:19;;;;;;;13.67;12.27;;;16.80;1.00;;;;;;5096849;28;20477;-83
2023/04/18 09:45:03;;;;;;;13.67;12.00;;;16.80;1.00;;;;;;5095726;28;20548;-86
2023/04/18 09:47:33;;;;;;;14.70;13.30;;;16.90;1.00;;;;;;5094893;28;20868;-84
2023/04/18 09:50:04;;;;;;;14.53;12.57;;;17.10;1.00;;;;;;5097485;27;20422;-85
2023/04/18 09:52:35;;;;;;;15.37;12.17;;;17.20;1.00;;;;;;5091993;28;20573;-84
2023/04/18 09:55:05;;;;;;;15.47;13.00;;;17.40;1.00;;;;;;5094781;28;20454;-85
2023/04/18 09:57:34;;;;;;;17.17;12.87;;;17.30;1.00;;;;;;5093396;28;20520;-84
2023/04/18 10:00:12;;;;;;;14.10;12.50;;;17.50;1.00;;;;;;5089568;28;20960;-84
2023/04/18 10:02:52;;;;;;;15.00;12.63;;;17.50;1.00;;;;;;5097655;28;20476;-85
2023/04/18 10:05:21;;;;;;;17.50;13.17;;;17.30;1.00;;;;;;5095578;28;20412;-87
2023/04/18 10:07:50;;;;;;;21.27;14.30;;;17.30;1.00;;;;;;5093874;27;20473;-84
2023/04/18 10:10:18;;;;;;;16.70;12.70;;;17.50;1.00;;;;;;5091879;28;20542;-84
2023/04/18 10:12:49;;;;;;;17.67;13.67;;;17.70;1.00;;;;;;5094199;28;20571;-84
2023/04/18 10:15:17;;;;;;;16.37;12.70;;;17.80;1.00;;;;;;5091953;28;20461;-84
2023/04/18 10:17:46;;;;;;;16.97;13.27;;;17.90;1.00;;;;;;5086837;28;20465;-84
2023/04/18 10:20:21;;;;;;;17.50;13.17;;;17.90;1.00;;;;;;5092787;28;20540;-84
2023/04/18 10:22:49;;;;;;;18.73;12.53;;;17.90;1.00;;;;;;5099197;27;20473;-85
2023/04/18 10:25:50;;;;;;;14.33;12.80;;;18.00;1.00;;;;;;5095128;28;20451;-86
2023/04/18 10:28:20;;;;;;;20.37;15.80;;;18.10;1.00;;;;;;5092423;28;20522;-84
2023/04/18 10:30:53;;;;;;;15.87;13.13;;;18.30;1.00;;;;;;5085558;28;20420;-86
2023/04/18 10:33:38;;;;;;;15.20;12.53;;;18.40;1.00;;;;;;5113423;27;20556;-85
2023/04/18 10:36:15;;;;;;;15.93;13.70;;;18.50;1.00;;;;;;5087921;28;20556;-82
2023/04/18 10:38:48;;;;;;;16.20;12.63;;;18.40;1.00;;;;;;5090197;28;20471;-86
2023/04/18 10:41:22;;;;;;;15.17;12.43;;;18.20;1.00;;;;;;5092335;28;20467;-85
2023/04/18 10:44:21;;;;;;;17.03;12.23;;;18.20;1.00;;;;;;5091217;28;20523;-86
2023/04/18 10:47:28;;;;;;;15.23;12.63;;;18.20;1.00;;;;;;5074439;28;21238;-85
2023/04/18 10:50:13;;;;;;;13.00;11.60;;;17.90;1.00;;;;;;5088991;27;20434;-85
2023/04/18 10:52:43;;;;;;;18.00;12.77;;;17.80;1.00;;;;;;5097557;28;20414;-86
2023/04/18 10:55:20;;;;;;;14.40;11.87;;;17.90;1.00;;;;;;5094479;28;20958;-84
2023/04/18 10:57:49;;;;;;;19.20;12.70;;;18.00;1.00;;;;;;5087164;28;21244;-85
2023/04/18 11:00:22;;;;;;;15.70;12.67;;;18.20;1.00;;;;;;5090625;28;20494;-85
2023/04/18 11:02:52;;;;;;;17.33;13.90;;;18.30;1.00;;;;;;5094019;28;20529;-84
2023/04/18 11:05:21;;;;;;;15.20;12.73;;;18.30;1.00;;;;;;5090365;27;20451;-86
2023/04/18 11:07:52;;;;;;;14.43;12.50;;;18.40;1.00;;;;;;5095467;28;20459;-85
2023/04/18 11:10:20;;;;;;;16.23;12.83;;;18.30;1.00;;;;;;5091892;28;20461;-81
2023/04/18 11:12:48;;;;;;;19.63;13.13;;;18.00;1.00;;;;;;5098287;27;20514;-82
2023/04/18 11:15:20;;;;;;;14.37;12.70;;;18.20;1.00;;;;;;5094995;28;20460;-81
2023/04/18 11:17:56;;;;;;;16.10;13.30;;;18.10;1.00;;;;;;5093257;28;20422;-81
2023/04/18 11:20:24;;;;;;;14.53;12.83;;;18.00;1.00;;;;;;5093140;28;20432;-81
2023/04/18 11:22:55;;;;;;;16.60;13.20;;;17.90;1.00;;;;;;5090521;28;21071;-81
2023/04/18 11:25:26;;;;;;;18.23;12.77;;;18.00;1.00;;;;;;5094030;28;20538;-83
2023/04/18 11:27:55;;;;;;;16.17;13.63;;;18.20;1.00;;;;;;5085001;27;20541;-79
2023/04/18 11:30:22;;;;;;;18.77;13.50;;;18.10;1.00;;;;;;5091729;28;20463;-81
2023/04/18 11:32:50;;;;;;;16.60;14.30;;;18.10;1.00;;;;;;5088735;28;21228;-81
2023/04/18 11:35:20;;;;;;;15.60;12.37;;;18.00;1.00;;;;;;5091190;28;20463;-79
2023/04/18 11:37:50;;;;;;;15.13;12.10;;;18.00;1.00;;;;;;5090384;28;20460;-80
2023/04/18 11:40:18;;;;;;;15.70;12.90;;;18.10;1.00;;;;;;5093397;28;20536;-80
2023/04/18 11:42:45;;;;;;;15.90;13.47;;;18.10;1.00;;;;;;5093785;27;20970;-80
2023/04/18 11:45:13;;;;;;;15.60;13.37;;;18.20;1.00;;;;;;5091584;27;20554;-80
2023/04/18 11:47:41;;;;;;;17.20;12.60;;;18.20;1.00;;;;;;5089745;28;20902;-79
2023/04/18 11:50:10;;;;;;;17.60;12.50;;;18.10;1.00;;;;;;5086474;28;20448;-80
2023/04/18 11:52:40;;;;;;;14.30;11.70;;;18.20;1.00;;;;;;5094380;27;20474;-79
2023/04/18 11:55:16;;;;;;;16.40;12.57;;;18.20;1.00;;;;;;5094389;28;20539;-80
2023/04/18 11:57:52;;;;;;;14.40;12.90;;;18.20;1.00;;;;;;5091755;28;20487;-83
2023/04/18 12:00:30;;;;;;;14.43;12.73;;;18.10;1.00;;;;;;5086417;28;20494;-81
2023/04/18 12:02:58;;;;;;;16.40;12.83;;;18.40;1.00;;;;;;5093247;28;20465;-81
2023/04/18 12:05:27;;;;;;;15.87;13.10;;;18.50;1.00;;;;;;5093635;28;20476;-81
2023/04/18 12:07:55;;;;;;;16.90;12.37;;;18.40;1.00;;;;;;5095220;28;20463;-81
2023/04/18 12:10:28;;;;;;;16.80;13.13;;;18.40;1.00;;;;;;5094207;28;20950;-82
2023/04/18 12:12:58;;;;;;;17.37;13.57;;;18.50;1.00;;;;;;5093453;28;20439;-81
2023/04/18 12:15:27;;;;;;;16.30;13.40;;;18.50;1.00;;;;;;5092042;28;20602;-81
2023/04/18 12:17:59;;;;;;;15.17;13.57;;;18.40;1.00;;;;;;5094289;28;20470;-81
2023/04/18 12:20:33;;;;;;;15.07;12.97;;;18.30;1.00;;;;;;5094585;28;20434;-82
2023/04/18 12:23:01;;;;;;;18.13;15.13;;;18.30;1.00;;;;;;5092660;28;20488;-78
2023/04/18 12:25:28;;;;;;;19.80;15.60;;;18.20;1.00;;;;;;5085105;28;20498;-78
2023/04/18 12:27:58;;;;;;;21.47;15.13;;;18.20;1.00;;;;;;5095045;28;20459;-78
2023/04/18 12:30:28;;;;;;;17.20;15.50;;;18.30;1.00;;;;;;5097311;28;20541;-79
2023/04/18 12:32:56;;;;;;;20.80;17.27;;;18.40;1.00;;;;;;5093883;28;20500;-80
2023/04/18 12:35:23;;;;;;;17.47;15.40;;;18.30;1.00;;;;;;5108116;27;20466;-80
2023/04/18 12:37:52;;;;;;;18.77;16.07;;;18.40;1.00;;;;;;5093942;28;20482;-80
2023/04/18 12:40:21;;;;;;;17.63;15.90;;;18.30;1.00;;;;;;5094046;28;20512;-80
2023/04/18 12:42:49;;;;;;;21.20;16.73;;;18.20;1.00;;;;;;5092120;28;21250;-81
2023/04/18 12:45:19;;;;;;;18.27;16.23;;;17.90;1.00;;;;;;5101584;28;20457;-80
2023/04/18 12:47:47;;;;;;;17.63;15.73;;;17.80;1.00;;;;;;5101512;28;20581;-80
2023/04/18 12:50:17;;;;;;;18.83;16.87;;;17.50;1.00;;;;;;5101780;28;20433;-80
2023/04/18 12:52:45;;;;;;;20.83;17.73;;;17.40;1.00;;;;;;5100602;28;20472;-78
2023/04/18 12:55:12;;;;;;;19.40;17.37;;;17.30;1.00;;;;;;5091934;28;20466;-76
2023/04/18 12:57:40;;;;;;;17.43;15.63;;;17.30;1.00;;;;;;5088510;28;20463;-79